Time;durP1;ratioP1;P1;durP2;ratioP2;P2;SDS_P1;SDS_P2;PMS_P1;PMS_P2;Temp;Humidity;BMP_temperature;BMP_pressure;BME280_temperature;BME280_humidity;BME280_pressure;Samples;Min_cycle;Max_cycle;Signal;HPM_P1;HPM_P2
2023/01/04 00:14:48;;;;;;;41.00;22.90;;;;;;;0.39;78.54;101440.38;30981651;28;97047;-66
2023/01/04 00:29:48;;;;;;;45.65;24.45;;;;;;;0.73;78.22;101438.72;30980291;28;96601;-70
2023/01/04 00:44:48;;;;;;;40.60;22.20;;;;;;;0.49;78.15;101433.75;30979450;28;96678;-68
2023/01/04 00:59:49;;;;;;;42.63;21.52;;;;;;;0.28;78.06;101438.25;30978420;28;96758;-67
2023/01/04 01:14:49;;;;;;;41.35;19.52;;;;;;;0.27;78.60;101444.41;30976950;28;96764;-67
2023/01/04 01:29:49;;;;;;;38.08;18.95;;;;;;;0.20;78.25;101435.16;30980101;28;97232;-73
2023/01/04 01:45:09;;;;;;;35.08;18.65;;;;;;;0.20;78.65;101403.72;30996815;28;96826;-73
2023/01/04 02:00:12;;;;;;;38.08;17.23;;;;;;;-0.02;78.29;101394.22;30995607;28;96622;-73
2023/01/04 02:15:13;;;;;;;37.78;16.23;;;;;;;-0.22;78.14;101382.94;30993498;28;96695;-72
2023/01/04 02:30:58;;;;;;;28.52;15.07;;;;;;;-0.24;78.62;101371.66;30992677;28;97403;-73
2023/01/04 02:46:05;;;;;;;28.15;16.38;;;;;;;-0.40;78.33;101337.47;30977417;28;96906;-72
2023/01/04 03:17:09;;;;;;;21.50;11.48;;;;;;;-0.83;79.06;101307.19;30880719;28;97373;-71
2023/01/04 03:48:34;;;;;;;22.85;11.30;;;;;;;-0.99;79.29;101273.03;30983877;28;96752;-67
2023/01/04 04:18:53;;;;;;;17.75;8.50;;;;;;;-0.83;79.98;101213.88;30981652;28;97426;-66
2023/01/04 04:33:53;;;;;;;16.33;9.48;;;;;;;-0.73;80.60;101216.91;30979637;28;97030;-69
2023/01/04 04:48:54;;;;;;;18.80;10.20;;;;;;;-0.51;80.76;101214.09;30978070;28;96756;-67
2023/01/04 05:03:54;;;;;;;20.42;10.90;;;;;;;-0.32;80.97;101202.75;30974837;28;96707;-70
2023/01/04 05:18:55;;;;;;;17.02;9.77;;;;;;;-0.23;81.13;101173.50;30974645;28;97269;-71
2023/01/04 05:33:55;;;;;;;15.82;7.85;;;;;;;-0.23;81.13;101157.78;30949029;28;97709;-66
2023/01/04 05:48:55;;;;;;;17.38;11.48;;;;;;;-0.20;81.33;101144.53;30943898;28;96796;-68
2023/01/04 06:03:56;;;;;;;19.48;10.50;;;;;;;-0.27;81.42;101130.88;30942316;28;97535;-71
2023/01/04 06:18:57;;;;;;;17.50;10.80;;;;;;;-0.38;81.18;101131.44;30948499;28;98191;-69
2023/01/04 06:33:57;;;;;;;21.38;12.98;;;;;;;-0.20;82.25;101079.06;30959027;28;97466;-73
2023/01/04 06:48:57;;;;;;;22.52;9.07;;;;;;;0.23;82.28;101061.06;30984418;28;97310;-68
2023/01/04 07:03:58;;;;;;;14.10;8.85;;;;;;;0.70;82.29;101045.44;30985162;28;97141;-67
2023/01/04 07:18:58;;;;;;;13.77;8.05;;;;;;;1.21;82.20;101022.44;30981779;28;96663;-67
2023/01/04 07:33:59;;;;;;;12.18;7.63;;;;;;;2.01;81.32;101017.66;30980921;28;96617;-68
2023/01/04 07:48:59;;;;;;;10.38;6.95;;;;;;;2.93;80.46;100994.31;30982006;28;97131;-66
2023/01/04 08:04:00;;;;;;;12.20;6.47;;;;;;;3.66;79.55;100984.19;30987645;28;96580;-67
2023/01/04 08:19:04;;;;;;;8.60;5.40;;;;;;;4.75;78.25;100984.34;30978593;28;96630;-72
2023/01/04 08:34:07;;;;;;;9.13;5.77;;;;;;;7.40;75.72;100932.59;30994785;28;97510;-77
2023/01/04 08:49:07;;;;;;;7.72;4.75;;;;;;;7.95;71.73;100913.72;30972627;28;96874;-73
2023/01/04 09:04:08;;;;;;;9.75;5.55;;;;;;;9.05;66.75;100897.69;30974775;28;96562;-78
2023/01/04 09:19:09;;;;;;;15.90;7.53;;;;;;;7.07;68.37;100868.25;30972667;28;96867;-72
2023/01/04 09:34:11;;;;;;;7.78;4.65;;;;;;;7.01;69.15;100822.91;30967765;28;96581;-74
2023/01/04 09:49:28;;;;;;;11.15;5.25;;;;;;;7.22;68.56;100778.66;30973897;28;97444;-72
2023/01/04 10:04:43;;;;;;;6.03;4.05;;;;;;;7.37;67.99;100749.97;30994492;28;96661;-70
2023/01/04 10:19:55;;;;;;;7.90;3.87;;;;;;;7.89;66.52;100701.19;30989176;28;97341;-67
2023/01/04 10:34:56;;;;;;;6.50;3.43;;;;;;;12.25;60.26;100658.44;30985342;28;97248;-70
2023/01/04 10:50:00;;;;;;;5.85;2.30;;;;;;;9.08;61.68;100624.50;30985472;28;96736;-72
2023/01/04 11:05:15;;;;;;;4.43;2.60;;;;;;;7.94;63.24;100590.16;30985876;28;96689;-71
2023/01/04 11:20:15;;;;;;;4.33;1.60;;;;;;;7.49;63.98;100562.47;30984974;28;97858;-68
2023/01/04 11:35:37;;;;;;;6.70;3.03;;;;;;;7.36;63.60;100527.47;30982529;28;97454;-68
2023/01/04 11:50:43;;;;;;;11.13;2.37;;;;;;;7.35;63.21;100486.03;30980168;28;97441;-66
2023/01/04 12:05:43;;;;;;;5.73;2.47;;;;;;;7.20;63.86;100461.78;30976904;28;98483;-68
2023/01/04 12:20:44;;;;;;;3.97;0.85;;;;;;;7.16;64.06;100408.22;30982991;28;97164;-67
2023/01/04 12:36:05;;;;;;;3.13;1.80;;;;;;;7.35;62.87;100375.56;30985479;28;96747;-69
2023/01/04 12:51:20;;;;;;;2.00;1.40;;;;;;;7.43;62.06;100349.16;30986434;28;97625;-64
2023/01/04 13:06:22;;;;;;;4.38;2.65;;;;;;;7.25;62.33;100327.88;30988210;28;96687;-69
2023/01/04 13:21:26;;;;;;;3.90;2.03;;;;;;;6.92;63.78;100297.47;30972453;28;96663;-66
2023/01/04 13:36:26;;;;;;;1.83;0.90;;;;;;;6.58;65.53;100258.25;30989549;28;97098;-67
2023/01/04 13:51:35;;;;;;;3.83;1.77;;;;;;;6.45;66.06;100271.78;30989397;28;97980;-68
2023/01/04 14:06:43;;;;;;;2.22;1.27;;;;;;;6.48;66.91;100270.66;30986945;28;97591;-68
2023/01/04 14:21:43;;;;;;;6.53;2.53;;;;;;;6.23;67.76;100214.72;30988948;28;96738;-68
2023/01/04 14:36:44;;;;;;;6.00;2.85;;;;;;;6.07;68.66;100228.53;30987862;28;97057;-66
2023/01/04 14:51:50;;;;;;;4.38;2.88;;;;;;;5.98;69.12;100192.34;30981783;28;97408;-67
2023/01/04 15:07:00;;;;;;;10.55;4.82;;;;;;;5.88;70.58;100174.63;30977767;28;97316;-67
2023/01/04 15:22:00;;;;;;;5.03;2.45;;;;;;;5.84;71.11;100138.06;30982865;28;96681;-67
2023/01/04 15:37:01;;;;;;;7.68;3.97;;;;;;;5.92;71.01;100109.94;30983537;28;96610;-68
2023/01/04 15:52:01;;;;;;;4.78;3.05;;;;;;;6.14;71.41;100086.81;30981965;28;97337;-67
2023/01/04 16:07:02;;;;;;;6.50;2.78;;;;;;;6.37;70.63;100073.19;30981866;28;96847;-66
2023/01/04 16:22:02;;;;;;;3.95;2.30;;;;;;;6.62;70.42;100039.13;30978885;28;96816;-67
2023/01/04 16:37:03;;;;;;;5.22;2.75;;;;;;;6.61;70.48;100048.84;30977854;28;96791;-66
2023/01/04 16:52:09;;;;;;;5.47;2.95;;;;;;;6.66;70.66;100011.38;30976403;28;96809;-68
2023/01/04 17:07:10;;;;;;;5.70;3.35;;;;;;;6.84;70.15;99998.16;30975550;28;97229;-68
2023/01/04 17:22:11;;;;;;;4.50;3.35;;;;;;;7.00;70.11;99970.97;30972287;28;96697;-68
2023/01/04 17:37:11;;;;;;;5.97;3.83;;;;;;;7.03;69.98;99945.00;30972201;28;96690;-65
2023/01/04 17:52:12;;;;;;;5.95;3.35;;;;;;;7.12;70.58;99930.00;30970112;28;96717;-66
2023/01/04 18:07:12;;;;;;;5.70;3.50;;;;;;;7.23;70.41;99894.47;30970760;28;97331;-68
2023/01/04 18:22:12;;;;;;;7.75;3.70;;;;;;;7.30;70.70;99879.63;30987435;28;96663;-66
2023/01/04 18:37:14;;;;;;;4.72;3.33;;;;;;;7.36;70.50;99857.78;30989364;28;97201;-67
2023/01/04 18:52:15;;;;;;;5.60;3.83;;;;;;;7.43;69.99;99850.88;30987767;28;98040;-67
2023/01/04 19:07:16;;;;;;;5.47;3.23;;;;;;;7.47;70.67;99842.63;30986983;28;97262;-71
2023/01/04 19:22:17;;;;;;;6.22;2.97;;;;;;;7.51;70.77;99822.75;30974570;28;97252;-66
2023/01/04 19:37:17;;;;;;;4.07;2.25;;;;;;;7.70;70.43;99795.16;30977249;28;97221;-64
2023/01/04 19:52:17;;;;;;;3.83;2.38;;;;;;;7.88;70.00;99781.78;30981029;28;97338;-64
2023/01/04 20:07:18;;;;;;;3.58;1.50;;;;;;;7.92;70.19;99780.47;30973241;28;96789;-65
2023/01/04 20:22:18;;;;;;;3.28;1.75;;;;;;;7.86;69.47;99766.03;30962146;28;97947;-69
2023/01/04 20:37:19;;;;;;;2.63;1.50;;;;;;;7.70;69.74;99753.56;30964842;28;97386;-70
2023/01/04 20:52:19;;;;;;;3.60;1.80;;;;;;;8.00;70.18;99739.88;30957490;28;97005;-69
2023/01/04 21:07:19;;;;;;;2.10;1.33;;;;;;;8.18;69.84;99694.59;30964397;28;96713;-70
2023/01/04 21:22:22;;;;;;;3.13;1.35;;;;;;;8.41;69.42;99698.22;30965545;28;97223;-69
2023/01/04 21:37:23;;;;;;;2.63;1.30;;;;;;;8.59;69.44;99691.91;30960421;28;97531;-69
2023/01/04 21:52:24;;;;;;;2.30;1.40;;;;;;;8.71;69.11;99668.50;30973896;28;96657;-69
2023/01/04 22:07:25;;;;;;;3.00;1.90;;;;;;;8.71;69.22;99640.09;30985185;28;96669;-69
2023/01/04 22:22:28;;;;;;;2.42;1.48;;;;;;;8.76;69.33;99602.38;30984315;28;97490;-68
2023/01/04 22:37:28;;;;;;;2.33;1.33;;;;;;;8.76;69.10;99574.03;30981308;28;96709;-68
2023/01/04 22:52:29;;;;;;;3.03;1.55;;;;;;;8.81;69.43;99561.03;30979623;28;97695;-71
2023/01/04 23:07:29;;;;;;;3.08;1.48;;;;;;;8.98;69.10;99547.69;30988924;28;96587;-67
2023/01/04 23:22:30;;;;;;;2.03;1.10;;;;;;;9.28;69.08;99535.34;30987973;28;96647;-68
2023/01/04 23:37:31;;;;;;;2.03;0.95;;;;;;;9.41;69.67;99536.56;30987813;28;96687;-69
2023/01/04 23:52:31;;;;;;;1.50;1.00;;;;;;;9.41;68.85;99502.81;30984050;28;97592;-69
